sensor_id;sensor_type;location;lat;lon;timestamp;P1;durP1;ratioP1;P2;durP2;ratioP2
59052;SDS011;44843;44.728;10.396;2022-07-12T00:00:27;5.18;;;3.20;;
59052;SDS011;44843;44.728;10.396;2022-07-12T00:02:53;6.78;;;2.97;;
59052;SDS011;44843;44.728;10.396;2022-07-12T00:05:18;5.45;;;2.95;;
59052;SDS011;44843;44.728;10.396;2022-07-12T00:07:44;7.07;;;3.20;;
59052;SDS011;44843;44.728;10.396;2022-07-12T00:10:09;6.78;;;3.10;;
59052;SDS011;44843;44.728;10.396;2022-07-12T00:12:35;7.45;;;2.55;;
59052;SDS011;44843;44.728;10.396;2022-07-12T00:15:00;11.07;;;3.10;;
59052;SDS011;44843;44.728;10.396;2022-07-12T00:17:25;8.45;;;2.42;;
59052;SDS011;44843;44.728;10.396;2022-07-12T00:19:51;4.68;;;2.45;;
59052;SDS011;44843;44.728;10.396;2022-07-12T00:22:16;7.70;;;2.67;;
59052;SDS011;44843;44.728;10.396;2022-07-12T00:24:42;5.15;;;2.45;;
59052;SDS011;44843;44.728;10.396;2022-07-12T00:27:07;5.50;;;3.20;;
59052;SDS011;44843;44.728;10.396;2022-07-12T00:29:32;7.40;;;2.53;;
59052;SDS011;44843;44.728;10.396;2022-07-12T00:34:23;9.43;;;2.42;;
59052;SDS011;44843;44.728;10.396;2022-07-12T00:36:49;6.68;;;2.45;;
59052;SDS011;44843;44.728;10.396;2022-07-12T00:39:14;5.15;;;2.80;;
59052;SDS011;44843;44.728;10.396;2022-07-12T00:41:40;5.00;;;2.55;;
59052;SDS011;44843;44.728;10.396;2022-07-12T00:44:05;9.07;;;2.20;;
59052;SDS011;44843;44.728;10.396;2022-07-12T00:46:31;6.10;;;2.30;;
59052;SDS011;44843;44.728;10.396;2022-07-12T00:48:56;7.63;;;3.20;;
59052;SDS011;44843;44.728;10.396;2022-07-12T00:51:22;2.83;;;2.10;;
59052;SDS011;44843;44.728;10.396;2022-07-12T00:53:48;7.90;;;2.50;;
59052;SDS011;44843;44.728;10.396;2022-07-12T00:56:15;6.32;;;2.40;;
59052;SDS011;44843;44.728;10.396;2022-07-12T00:58:41;8.10;;;2.90;;
59052;SDS011;44843;44.728;10.396;2022-07-12T01:01:08;4.95;;;2.70;;
59052;SDS011;44843;44.728;10.396;2022-07-12T01:03:35;6.07;;;2.83;;
59052;SDS011;44843;44.728;10.396;2022-07-12T01:06:01;5.07;;;2.58;;
59052;SDS011;44843;44.728;10.396;2022-07-12T01:08:26;5.28;;;2.40;;
59052;SDS011;44843;44.728;10.396;2022-07-12T01:10:52;3.28;;;2.42;;
59052;SDS011;44843;44.728;10.396;2022-07-12T01:13:18;7.25;;;2.50;;
59052;SDS011;44843;44.728;10.396;2022-07-12T01:15:45;10.68;;;2.67;;
59052;SDS011;44843;44.728;10.396;2022-07-12T01:18:13;4.55;;;2.40;;
59052;SDS011;44843;44.728;10.396;2022-07-12T01:20:40;6.00;;;2.35;;
59052;SDS011;44843;44.728;10.396;2022-07-12T01:23:05;6.07;;;2.80;;
59052;SDS011;44843;44.728;10.396;2022-07-12T01:25:31;5.43;;;2.80;;
59052;SDS011;44843;44.728;10.396;2022-07-12T01:27:57;6.10;;;2.80;;
59052;SDS011;44843;44.728;10.396;2022-07-12T01:30:22;5.45;;;2.75;;
59052;SDS011;44843;44.728;10.396;2022-07-12T01:32:48;8.95;;;2.92;;
59052;SDS011;44843;44.728;10.396;2022-07-12T01:35:14;5.10;;;2.60;;
59052;SDS011;44843;44.728;10.396;2022-07-12T01:37:41;3.85;;;2.50;;
59052;SDS011;44843;44.728;10.396;2022-07-12T01:40:08;2.90;;;2.60;;
59052;SDS011;44843;44.728;10.396;2022-07-12T01:42:36;4.68;;;2.65;;
59052;SDS011;44843;44.728;10.396;2022-07-12T01:45:02;7.25;;;3.00;;
59052;SDS011;44843;44.728;10.396;2022-07-12T01:47:29;4.88;;;2.80;;
59052;SDS011;44843;44.728;10.396;2022-07-12T01:49:56;5.80;;;2.75;;
59052;SDS011;44843;44.728;10.396;2022-07-12T01:52:22;7.85;;;2.97;;
59052;SDS011;44843;44.728;10.396;2022-07-12T01:54:48;9.68;;;2.15;;
59052;SDS011;44843;44.728;10.396;2022-07-12T01:57:14;7.53;;;2.40;;
59052;SDS011;44843;44.728;10.396;2022-07-12T01:59:40;4.75;;;2.20;;
59052;SDS011;44843;44.728;10.396;2022-07-12T02:02:06;5.13;;;2.30;;
59052;SDS011;44843;44.728;10.396;2022-07-12T02:04:32;7.57;;;3.17;;
59052;SDS011;44843;44.728;10.396;2022-07-12T02:06:58;13.13;;;2.78;;
59052;SDS011;44843;44.728;10.396;2022-07-12T02:09:24;6.20;;;2.53;;
59052;SDS011;44843;44.728;10.396;2022-07-12T02:11:49;4.50;;;2.80;;
59052;SDS011;44843;44.728;10.396;2022-07-12T02:14:16;6.97;;;2.60;;
59052;SDS011;44843;44.728;10.396;2022-07-12T02:16:42;7.22;;;2.88;;
59052;SDS011;44843;44.728;10.396;2022-07-12T02:19:09;5.43;;;2.55;;
59052;SDS011;44843;44.728;10.396;2022-07-12T02:21:36;6.95;;;2.20;;
59052;SDS011;44843;44.728;10.396;2022-07-12T02:24:02;3.55;;;2.60;;
59052;SDS011;44843;44.728;10.396;2022-07-12T02:26:28;5.05;;;2.45;;
59052;SDS011;44843;44.728;10.396;2022-07-12T02:28:54;4.30;;;2.40;;
59052;SDS011;44843;44.728;10.396;2022-07-12T02:31:19;6.78;;;2.70;;
59052;SDS011;44843;44.728;10.396;2022-07-12T02:33:45;5.53;;;2.50;;
59052;SDS011;44843;44.728;10.396;2022-07-12T02:36:10;6.53;;;2.92;;
59052;SDS011;44843;44.728;10.396;2022-07-12T02:38:36;6.43;;;3.00;;
59052;SDS011;44843;44.728;10.396;2022-07-12T02:41:01;6.68;;;2.63;;
59052;SDS011;44843;44.728;10.396;2022-07-12T02:43:28;5.30;;;2.80;;
59052;SDS011;44843;44.728;10.396;2022-07-12T02:46:02;4.85;;;2.65;;
59052;SDS011;44843;44.728;10.396;2022-07-12T02:48:45;8.23;;;2.92;;
59052;SDS011;44843;44.728;10.396;2022-07-12T02:51:11;8.63;;;3.05;;
59052;SDS011;44843;44.728;10.396;2022-07-12T02:53:36;5.13;;;2.38;;
59052;SDS011;44843;44.728;10.396;2022-07-12T02:56:02;5.45;;;2.72;;
59052;SDS011;44843;44.728;10.396;2022-07-12T02:58:28;6.05;;;2.78;;
59052;SDS011;44843;44.728;10.396;2022-07-12T03:00:53;4.75;;;2.75;;
59052;SDS011;44843;44.728;10.396;2022-07-12T03:03:19;4.05;;;2.50;;
59052;SDS011;44843;44.728;10.396;2022-07-12T03:05:45;3.90;;;2.83;;
59052;SDS011;44843;44.728;10.396;2022-07-12T03:08:11;5.03;;;2.92;;
59052;SDS011;44843;44.728;10.396;2022-07-12T03:10:38;6.20;;;2.83;;
59052;SDS011;44843;44.728;10.396;2022-07-12T03:13:04;6.07;;;2.90;;
59052;SDS011;44843;44.728;10.396;2022-07-12T03:15:30;5.60;;;3.35;;
59052;SDS011;44843;44.728;10.396;2022-07-12T03:17:57;4.85;;;2.50;;
59052;SDS011;44843;44.728;10.396;2022-07-12T03:20:23;4.53;;;2.97;;
59052;SDS011;44843;44.728;10.396;2022-07-12T03:22:48;8.73;;;2.42;;
59052;SDS011;44843;44.728;10.396;2022-07-12T03:25:16;7.40;;;2.88;;
59052;SDS011;44843;44.728;10.396;2022-07-12T03:27:42;3.58;;;2.50;;
59052;SDS011;44843;44.728;10.396;2022-07-12T03:30:08;12.27;;;3.17;;
59052;SDS011;44843;44.728;10.396;2022-07-12T03:32:34;7.75;;;3.42;;
59052;SDS011;44843;44.728;10.396;2022-07-12T03:35:00;6.18;;;3.30;;
59052;SDS011;44843;44.728;10.396;2022-07-12T03:37:26;8.88;;;3.72;;
59052;SDS011;44843;44.728;10.396;2022-07-12T03:39:51;5.72;;;2.90;;
59052;SDS011;44843;44.728;10.396;2022-07-12T03:42:18;7.07;;;3.50;;
59052;SDS011;44843;44.728;10.396;2022-07-12T03:44:44;5.55;;;3.08;;
59052;SDS011;44843;44.728;10.396;2022-07-12T03:47:10;6.70;;;2.80;;
59052;SDS011;44843;44.728;10.396;2022-07-12T03:49:35;8.95;;;3.15;;
59052;SDS011;44843;44.728;10.396;2022-07-12T03:52:00;7.50;;;3.03;;
59052;SDS011;44843;44.728;10.396;2022-07-12T03:54:28;8.07;;;3.28;;
59052;SDS011;44843;44.728;10.396;2022-07-12T03:56:53;5.80;;;2.90;;
59052;SDS011;44843;44.728;10.396;2022-07-12T03:59:37;5.57;;;2.95;;
59052;SDS011;44843;44.728;10.396;2022-07-12T04:02:03;7.55;;;3.65;;
59052;SDS011;44843;44.728;10.396;2022-07-12T04:04:28;8.32;;;3.63;;
59052;SDS011;44843;44.728;10.396;2022-07-12T04:06:54;7.80;;;3.58;;
59052;SDS011;44843;44.728;10.396;2022-07-12T04:09:19;9.73;;;3.70;;
59052;SDS011;44843;44.728;10.396;2022-07-12T04:11:45;6.45;;;3.50;;
59052;SDS011;44843;44.728;10.396;2022-07-12T04:14:10;6.95;;;3.58;;
59052;SDS011;44843;44.728;10.396;2022-07-12T04:16:36;6.93;;;3.55;;
59052;SDS011;44843;44.728;10.396;2022-07-12T04:19:01;5.82;;;2.97;;
59052;SDS011;44843;44.728;10.396;2022-07-12T04:21:27;10.07;;;3.67;;
59052;SDS011;44843;44.728;10.396;2022-07-12T04:23:52;8.48;;;3.60;;
59052;SDS011;44843;44.728;10.396;2022-07-12T04:26:18;6.13;;;3.25;;
59052;SDS011;44843;44.728;10.396;2022-07-12T04:28:43;6.35;;;3.80;;
59052;SDS011;44843;44.728;10.396;2022-07-12T04:31:08;9.38;;;3.65;;
59052;SDS011;44843;44.728;10.396;2022-07-12T04:33:34;7.80;;;3.60;;
59052;SDS011;44843;44.728;10.396;2022-07-12T04:36:00;5.78;;;2.88;;
59052;SDS011;44843;44.728;10.396;2022-07-12T04:38:26;4.80;;;3.47;;
59052;SDS011;44843;44.728;10.396;2022-07-12T04:40:51;7.35;;;3.05;;
59052;SDS011;44843;44.728;10.396;2022-07-12T04:43:17;5.30;;;3.22;;
59052;SDS011;44843;44.728;10.396;2022-07-12T04:45:42;6.10;;;3.17;;
59052;SDS011;44843;44.728;10.396;2022-07-12T04:48:11;10.77;;;3.70;;
59052;SDS011;44843;44.728;10.396;2022-07-12T04:50:37;6.47;;;3.45;;
59052;SDS011;44843;44.728;10.396;2022-07-12T04:53:02;11.60;;;3.75;;
59052;SDS011;44843;44.728;10.396;2022-07-12T04:55:28;11.18;;;4.10;;
59052;SDS011;44843;44.728;10.396;2022-07-12T04:57:54;7.38;;;4.15;;
59052;SDS011;44843;44.728;10.396;2022-07-12T05:00:19;6.55;;;4.10;;
59052;SDS011;44843;44.728;10.396;2022-07-12T05:02:45;10.40;;;4.13;;
59052;SDS011;44843;44.728;10.396;2022-07-12T05:05:11;7.03;;;3.95;;
59052;SDS011;44843;44.728;10.396;2022-07-12T05:07:36;7.68;;;3.70;;
59052;SDS011;44843;44.728;10.396;2022-07-12T05:10:02;5.03;;;3.67;;
59052;SDS011;44843;44.728;10.396;2022-07-12T05:12:27;6.82;;;3.72;;
59052;SDS011;44843;44.728;10.396;2022-07-12T05:14:53;5.13;;;3.72;;
59052;SDS011;44843;44.728;10.396;2022-07-12T05:17:18;9.50;;;3.72;;
59052;SDS011;44843;44.728;10.396;2022-07-12T05:19:44;8.00;;;3.72;;
59052;SDS011;44843;44.728;10.396;2022-07-12T05:22:09;7.90;;;3.63;;
59052;SDS011;44843;44.728;10.396;2022-07-12T05:24:35;8.02;;;3.97;;
59052;SDS011;44843;44.728;10.396;2022-07-12T05:27:00;5.47;;;3.90;;
59052;SDS011;44843;44.728;10.396;2022-07-12T05:29:25;7.55;;;3.67;;
59052;SDS011;44843;44.728;10.396;2022-07-12T05:31:54;7.60;;;3.65;;
59052;SDS011;44843;44.728;10.396;2022-07-12T05:36:46;7.18;;;3.47;;
59052;SDS011;44843;44.728;10.396;2022-07-12T05:39:11;8.48;;;3.80;;
59052;SDS011;44843;44.728;10.396;2022-07-12T05:41:37;9.45;;;3.10;;
59052;SDS011;44843;44.728;10.396;2022-07-12T05:44:03;8.52;;;3.50;;
59052;SDS011;44843;44.728;10.396;2022-07-12T05:46:28;7.63;;;3.70;;
59052;SDS011;44843;44.728;10.396;2022-07-12T05:48:54;7.40;;;3.63;;
59052;SDS011;44843;44.728;10.396;2022-07-12T05:51:20;6.28;;;3.70;;
59052;SDS011;44843;44.728;10.396;2022-07-12T05:54:03;6.97;;;3.85;;
59052;SDS011;44843;44.728;10.396;2022-07-12T05:56:29;7.13;;;3.80;;
59052;SDS011;44843;44.728;10.396;2022-07-12T05:58:55;6.32;;;4.18;;
59052;SDS011;44843;44.728;10.396;2022-07-12T06:01:21;9.32;;;4.68;;
59052;SDS011;44843;44.728;10.396;2022-07-12T06:03:46;8.57;;;3.80;;
59052;SDS011;44843;44.728;10.396;2022-07-12T06:06:12;14.20;;;4.18;;
59052;SDS011;44843;44.728;10.396;2022-07-12T06:08:37;7.72;;;3.65;;
59052;SDS011;44843;44.728;10.396;2022-07-12T06:11:03;7.43;;;3.25;;
59052;SDS011;44843;44.728;10.396;2022-07-12T06:13:28;7.65;;;3.50;;
59052;SDS011;44843;44.728;10.396;2022-07-12T06:15:54;12.30;;;3.47;;
59052;SDS011;44843;44.728;10.396;2022-07-12T06:18:24;4.65;;;2.88;;
59052;SDS011;44843;44.728;10.396;2022-07-12T06:20:49;5.70;;;3.28;;
59052;SDS011;44843;44.728;10.396;2022-07-12T06:23:15;6.78;;;2.90;;
59052;SDS011;44843;44.728;10.396;2022-07-12T06:25:40;6.68;;;3.17;;
59052;SDS011;44843;44.728;10.396;2022-07-12T06:28:06;6.35;;;2.72;;
59052;SDS011;44843;44.728;10.396;2022-07-12T06:30:31;4.00;;;2.70;;
59052;SDS011;44843;44.728;10.396;2022-07-12T06:32:57;7.30;;;3.00;;
59052;SDS011;44843;44.728;10.396;2022-07-12T06:35:22;10.60;;;3.63;;
59052;SDS011;44843;44.728;10.396;2022-07-12T06:37:48;5.28;;;3.13;;
59052;SDS011;44843;44.728;10.396;2022-07-12T06:40:13;9.68;;;3.30;;
59052;SDS011;44843;44.728;10.396;2022-07-12T06:42:42;8.82;;;3.88;;
59052;SDS011;44843;44.728;10.396;2022-07-12T06:45:08;5.95;;;3.08;;
59052;SDS011;44843;44.728;10.396;2022-07-12T06:47:35;7.20;;;3.60;;
59052;SDS011;44843;44.728;10.396;2022-07-12T06:50:00;8.55;;;3.55;;
59052;SDS011;44843;44.728;10.396;2022-07-12T06:52:26;11.10;;;3.60;;
59052;SDS011;44843;44.728;10.396;2022-07-12T06:54:51;12.77;;;3.75;;
59052;SDS011;44843;44.728;10.396;2022-07-12T06:57:17;9.40;;;3.33;;
59052;SDS011;44843;44.728;10.396;2022-07-12T06:59:42;12.32;;;3.83;;
59052;SDS011;44843;44.728;10.396;2022-07-12T07:02:08;8.57;;;3.42;;
59052;SDS011;44843;44.728;10.396;2022-07-12T07:04:33;6.15;;;3.25;;
59052;SDS011;44843;44.728;10.396;2022-07-12T07:06:59;6.63;;;2.78;;
59052;SDS011;44843;44.728;10.396;2022-07-12T07:09:24;6.45;;;2.65;;
59052;SDS011;44843;44.728;10.396;2022-07-12T07:11:50;8.23;;;2.90;;
59052;SDS011;44843;44.728;10.396;2022-07-12T07:14:16;7.85;;;2.63;;
59052;SDS011;44843;44.728;10.396;2022-07-12T07:16:41;8.77;;;2.70;;
59052;SDS011;44843;44.728;10.396;2022-07-12T07:19:07;5.53;;;2.50;;
59052;SDS011;44843;44.728;10.396;2022-07-12T07:21:32;6.00;;;3.03;;
59052;SDS011;44843;44.728;10.396;2022-07-12T07:23:58;7.90;;;2.50;;
59052;SDS011;44843;44.728;10.396;2022-07-12T07:26:23;9.02;;;3.00;;
59052;SDS011;44843;44.728;10.396;2022-07-12T07:28:49;10.55;;;2.80;;
59052;SDS011;44843;44.728;10.396;2022-07-12T07:31:34;6.35;;;2.55;;
59052;SDS011;44843;44.728;10.396;2022-07-12T07:34:00;4.88;;;2.30;;
59052;SDS011;44843;44.728;10.396;2022-07-12T07:36:25;9.48;;;2.45;;
59052;SDS011;44843;44.728;10.396;2022-07-12T07:38:51;3.80;;;2.90;;
59052;SDS011;44843;44.728;10.396;2022-07-12T07:41:16;5.68;;;2.67;;
59052;SDS011;44843;44.728;10.396;2022-07-12T07:43:42;5.57;;;2.30;;
59052;SDS011;44843;44.728;10.396;2022-07-12T07:46:07;8.75;;;2.13;;
59052;SDS011;44843;44.728;10.396;2022-07-12T07:48:32;5.18;;;2.53;;
59052;SDS011;44843;44.728;10.396;2022-07-12T07:50:58;2.58;;;2.22;;
59052;SDS011;44843;44.728;10.396;2022-07-12T07:53:24;4.82;;;2.60;;
59052;SDS011;44843;44.728;10.396;2022-07-12T07:55:50;4.88;;;1.90;;
59052;SDS011;44843;44.728;10.396;2022-07-12T07:58:15;8.00;;;2.40;;
59052;SDS011;44843;44.728;10.396;2022-07-12T08:00:41;4.70;;;1.90;;
59052;SDS011;44843;44.728;10.396;2022-07-12T08:03:06;5.78;;;2.22;;
59052;SDS011;44843;44.728;10.396;2022-07-12T08:05:32;2.28;;;1.70;;
59052;SDS011;44843;44.728;10.396;2022-07-12T08:07:57;5.75;;;1.95;;
59052;SDS011;44843;44.728;10.396;2022-07-12T08:10:23;4.25;;;2.15;;
59052;SDS011;44843;44.728;10.396;2022-07-12T08:12:49;3.70;;;1.85;;
59052;SDS011;44843;44.728;10.396;2022-07-12T08:15:14;8.27;;;2.00;;
59052;SDS011;44843;44.728;10.396;2022-07-12T08:17:40;3.65;;;1.80;;
59052;SDS011;44843;44.728;10.396;2022-07-12T08:20:06;3.22;;;1.67;;
59052;SDS011;44843;44.728;10.396;2022-07-12T08:22:32;6.20;;;2.13;;
59052;SDS011;44843;44.728;10.396;2022-07-12T08:24:57;4.80;;;1.50;;
59052;SDS011;44843;44.728;10.396;2022-07-12T08:27:23;7.55;;;1.83;;
59052;SDS011;44843;44.728;10.396;2022-07-12T08:29:49;4.10;;;1.80;;
59052;SDS011;44843;44.728;10.396;2022-07-12T08:32:15;3.33;;;1.98;;
59052;SDS011;44843;44.728;10.396;2022-07-12T08:34:40;4.47;;;1.92;;
59052;SDS011;44843;44.728;10.396;2022-07-12T08:37:06;3.63;;;1.90;;
59052;SDS011;44843;44.728;10.396;2022-07-12T08:39:32;4.45;;;1.98;;
59052;SDS011;44843;44.728;10.396;2022-07-12T08:41:57;4.75;;;1.92;;
59052;SDS011;44843;44.728;10.396;2022-07-12T08:44:22;3.45;;;1.98;;
59052;SDS011;44843;44.728;10.396;2022-07-12T08:46:48;3.03;;;1.73;;
59052;SDS011;44843;44.728;10.396;2022-07-12T08:49:13;6.68;;;2.20;;
59052;SDS011;44843;44.728;10.396;2022-07-12T08:51:39;2.78;;;1.70;;
59052;SDS011;44843;44.728;10.396;2022-07-12T08:54:08;4.47;;;1.90;;
59052;SDS011;44843;44.728;10.396;2022-07-12T08:56:36;5.38;;;1.80;;
59052;SDS011;44843;44.728;10.396;2022-07-12T09:04:15;5.15;;;2.30;;
59052;SDS011;44843;44.728;10.396;2022-07-12T09:06:43;7.40;;;2.28;;
59052;SDS011;44843;44.728;10.396;2022-07-12T09:09:08;5.43;;;2.08;;
59052;SDS011;44843;44.728;10.396;2022-07-12T09:11:38;6.72;;;1.70;;
59052;SDS011;44843;44.728;10.396;2022-07-12T09:14:04;3.50;;;2.10;;
59052;SDS011;44843;44.728;10.396;2022-07-12T09:16:30;4.88;;;1.83;;
59052;SDS011;44843;44.728;10.396;2022-07-12T09:19:15;5.93;;;1.55;;
59052;SDS011;44843;44.728;10.396;2022-07-12T09:21:49;4.25;;;1.70;;
59052;SDS011;44843;44.728;10.396;2022-07-12T09:24:16;4.57;;;1.70;;
59052;SDS011;44843;44.728;10.396;2022-07-12T09:26:42;5.03;;;1.90;;
59052;SDS011;44843;44.728;10.396;2022-07-12T09:29:09;7.22;;;2.42;;
59052;SDS011;44843;44.728;10.396;2022-07-12T09:31:49;3.17;;;1.63;;
59052;SDS011;44843;44.728;10.396;2022-07-12T09:34:34;4.40;;;1.73;;
59052;SDS011;44843;44.728;10.396;2022-07-12T09:37:18;5.45;;;1.80;;
59052;SDS011;44843;44.728;10.396;2022-07-12T09:39:44;5.05;;;2.50;;
59052;SDS011;44843;44.728;10.396;2022-07-12T09:42:10;8.77;;;1.75;;
59052;SDS011;44843;44.728;10.396;2022-07-12T09:44:39;5.22;;;1.98;;
59052;SDS011;44843;44.728;10.396;2022-07-12T09:47:07;5.43;;;2.25;;
59052;SDS011;44843;44.728;10.396;2022-07-12T09:49:38;3.80;;;2.10;;
59052;SDS011;44843;44.728;10.396;2022-07-12T09:52:14;2.03;;;1.80;;
59052;SDS011;44843;44.728;10.396;2022-07-12T09:54:44;5.95;;;1.80;;
59052;SDS011;44843;44.728;10.396;2022-07-12T09:59:56;6.00;;;2.10;;
59052;SDS011;44843;44.728;10.396;2022-07-12T10:02:23;5.30;;;2.10;;
59052;SDS011;44843;44.728;10.396;2022-07-12T10:04:49;5.82;;;1.88;;
59052;SDS011;44843;44.728;10.396;2022-07-12T10:07:15;3.88;;;2.05;;
59052;SDS011;44843;44.728;10.396;2022-07-12T10:09:41;7.50;;;2.45;;
59052;SDS011;44843;44.728;10.396;2022-07-12T10:12:09;5.22;;;2.03;;
59052;SDS011;44843;44.728;10.396;2022-07-12T10:14:36;5.93;;;2.22;;
59052;SDS011;44843;44.728;10.396;2022-07-12T10:17:03;3.55;;;2.00;;
59052;SDS011;44843;44.728;10.396;2022-07-12T10:19:34;6.10;;;2.08;;
59052;SDS011;44843;44.728;10.396;2022-07-12T10:22:02;7.10;;;2.00;;
59052;SDS011;44843;44.728;10.396;2022-07-12T10:26:57;4.15;;;1.80;;
59052;SDS011;44843;44.728;10.396;2022-07-12T10:29:47;3.92;;;2.30;;
59052;SDS011;44843;44.728;10.396;2022-07-12T10:32:20;8.48;;;2.63;;
59052;SDS011;44843;44.728;10.396;2022-07-12T10:34:57;4.50;;;2.75;;
59052;SDS011;44843;44.728;10.396;2022-07-12T10:37:24;3.00;;;1.98;;
59052;SDS011;44843;44.728;10.396;2022-07-12T10:42:40;5.40;;;1.90;;
59052;SDS011;44843;44.728;10.396;2022-07-12T10:45:29;7.72;;;2.40;;
59052;SDS011;44843;44.728;10.396;2022-07-12T10:48:00;4.63;;;1.90;;
59052;SDS011;44843;44.728;10.396;2022-07-12T11:01:02;3.80;;;2.20;;
59052;SDS011;44843;44.728;10.396;2022-07-12T11:04:30;3.60;;;1.80;;
59052;SDS011;44843;44.728;10.396;2022-07-12T11:06:33;4.82;;;1.98;;
59052;SDS011;44843;44.728;10.396;2022-07-12T11:09:03;3.38;;;1.70;;
59052;SDS011;44843;44.728;10.396;2022-07-12T11:11:34;4.22;;;2.47;;
59052;SDS011;44843;44.728;10.396;2022-07-12T11:14:04;4.10;;;2.05;;
59052;SDS011;44843;44.728;10.396;2022-07-12T11:16:30;4.65;;;2.00;;
59052;SDS011;44843;44.728;10.396;2022-07-12T11:18:56;3.80;;;1.98;;
59052;SDS011;44843;44.728;10.396;2022-07-12T11:21:21;7.18;;;2.40;;
59052;SDS011;44843;44.728;10.396;2022-07-12T11:23:49;4.75;;;2.10;;
59052;SDS011;44843;44.728;10.396;2022-07-12T11:26:15;3.83;;;2.10;;
59052;SDS011;44843;44.728;10.396;2022-07-12T11:28:42;4.10;;;1.70;;
59052;SDS011;44843;44.728;10.396;2022-07-12T11:31:10;2.58;;;1.65;;
59052;SDS011;44843;44.728;10.396;2022-07-12T11:33:38;3.88;;;1.70;;
59052;SDS011;44843;44.728;10.396;2022-07-12T11:36:06;6.22;;;2.00;;
59052;SDS011;44843;44.728;10.396;2022-07-12T11:38:34;2.33;;;1.65;;
59052;SDS011;44843;44.728;10.396;2022-07-12T11:41:03;5.10;;;1.92;;
59052;SDS011;44843;44.728;10.396;2022-07-12T11:43:30;8.40;;;2.00;;
59052;SDS011;44843;44.728;10.396;2022-07-12T11:45:58;9.57;;;2.20;;
59052;SDS011;44843;44.728;10.396;2022-07-12T11:48:24;6.85;;;2.10;;
59052;SDS011;44843;44.728;10.396;2022-07-12T11:50:51;4.10;;;1.75;;
59052;SDS011;44843;44.728;10.396;2022-07-12T11:53:24;7.05;;;1.70;;
59052;SDS011;44843;44.728;10.396;2022-07-12T11:55:52;4.18;;;1.67;;
59052;SDS011;44843;44.728;10.396;2022-07-12T11:58:21;6.28;;;1.83;;
59052;SDS011;44843;44.728;10.396;2022-07-12T12:00:48;4.88;;;2.00;;
59052;SDS011;44843;44.728;10.396;2022-07-12T12:03:15;7.22;;;2.35;;
59052;SDS011;44843;44.728;10.396;2022-07-12T12:05:42;5.47;;;2.03;;
59052;SDS011;44843;44.728;10.396;2022-07-12T12:08:08;7.40;;;2.05;;
59052;SDS011;44843;44.728;10.396;2022-07-12T12:10:37;2.15;;;1.80;;
59052;SDS011;44843;44.728;10.396;2022-07-12T12:13:12;3.45;;;1.98;;
59052;SDS011;44843;44.728;10.396;2022-07-12T12:15:40;4.22;;;1.95;;
59052;SDS011;44843;44.728;10.396;2022-07-12T12:18:06;3.65;;;1.80;;
59052;SDS011;44843;44.728;10.396;2022-07-12T12:23:01;3.78;;;2.00;;
59052;SDS011;44843;44.728;10.396;2022-07-12T12:25:28;5.40;;;1.80;;
59052;SDS011;44843;44.728;10.396;2022-07-12T12:27:56;3.88;;;1.48;;
59052;SDS011;44843;44.728;10.396;2022-07-12T12:30:22;5.78;;;1.70;;
59052;SDS011;44843;44.728;10.396;2022-07-12T12:32:52;3.78;;;2.10;;
59052;SDS011;44843;44.728;10.396;2022-07-12T12:35:20;2.22;;;1.85;;
59052;SDS011;44843;44.728;10.396;2022-07-12T12:38:15;4.43;;;2.08;;
59052;SDS011;44843;44.728;10.396;2022-07-12T12:40:41;2.70;;;1.80;;
59052;SDS011;44843;44.728;10.396;2022-07-12T12:43:19;2.95;;;1.90;;
59052;SDS011;44843;44.728;10.396;2022-07-12T12:46:04;3.00;;;1.80;;
59052;SDS011;44843;44.728;10.396;2022-07-12T12:48:30;4.68;;;2.08;;
59052;SDS011;44843;44.728;10.396;2022-07-12T12:51:04;4.40;;;1.85;;
59052;SDS011;44843;44.728;10.396;2022-07-12T12:53:34;8.20;;;2.03;;
59052;SDS011;44843;44.728;10.396;2022-07-12T12:56:04;4.93;;;2.10;;
59052;SDS011;44843;44.728;10.396;2022-07-12T12:58:33;4.97;;;1.98;;
59052;SDS011;44843;44.728;10.396;2022-07-12T13:00:58;3.20;;;1.80;;
59052;SDS011;44843;44.728;10.396;2022-07-12T13:05:49;4.38;;;2.20;;
59052;SDS011;44843;44.728;10.396;2022-07-12T13:08:16;5.53;;;1.88;;
59052;SDS011;44843;44.728;10.396;2022-07-12T13:10:42;5.43;;;1.90;;
59052;SDS011;44843;44.728;10.396;2022-07-12T13:13:09;7.43;;;1.92;;
59052;SDS011;44843;44.728;10.396;2022-07-12T13:15:36;4.40;;;2.10;;
59052;SDS011;44843;44.728;10.396;2022-07-12T13:18:03;2.33;;;1.60;;
59052;SDS011;44843;44.728;10.396;2022-07-12T13:20:29;5.07;;;1.92;;
59052;SDS011;44843;44.728;10.396;2022-07-12T13:22:55;7.07;;;2.17;;
59052;SDS011;44843;44.728;10.396;2022-07-12T13:25:21;3.40;;;2.00;;
59052;SDS011;44843;44.728;10.396;2022-07-12T13:27:47;4.05;;;1.67;;
59052;SDS011;44843;44.728;10.396;2022-07-12T13:30:13;3.05;;;1.67;;
59052;SDS011;44843;44.728;10.396;2022-07-12T13:32:40;5.53;;;2.10;;
59052;SDS011;44843;44.728;10.396;2022-07-12T13:35:06;3.72;;;1.80;;
59052;SDS011;44843;44.728;10.396;2022-07-12T13:37:34;6.72;;;2.20;;
59052;SDS011;44843;44.728;10.396;2022-07-12T13:40:00;2.78;;;1.95;;
59052;SDS011;44843;44.728;10.396;2022-07-12T13:42:47;4.30;;;1.92;;
59052;SDS011;44843;44.728;10.396;2022-07-12T13:45:18;3.67;;;2.05;;
59052;SDS011;44843;44.728;10.396;2022-07-12T13:47:50;4.18;;;2.22;;
59052;SDS011;44843;44.728;10.396;2022-07-12T13:50:18;3.75;;;1.92;;
59052;SDS011;44843;44.728;10.396;2022-07-12T13:52:46;4.72;;;2.35;;
59052;SDS011;44843;44.728;10.396;2022-07-12T13:55:13;5.80;;;2.20;;
59052;SDS011;44843;44.728;10.396;2022-07-12T13:57:41;3.22;;;1.70;;
59052;SDS011;44843;44.728;10.396;2022-07-12T14:00:08;7.07;;;1.80;;
59052;SDS011;44843;44.728;10.396;2022-07-12T14:02:37;3.45;;;2.30;;
59052;SDS011;44843;44.728;10.396;2022-07-12T14:05:04;6.05;;;2.28;;
59052;SDS011;44843;44.728;10.396;2022-07-12T14:07:31;4.30;;;1.83;;
59052;SDS011;44843;44.728;10.396;2022-07-12T14:12:22;7.88;;;2.67;;
59052;SDS011;44843;44.728;10.396;2022-07-12T14:14:48;5.05;;;1.90;;
59052;SDS011;44843;44.728;10.396;2022-07-12T14:17:31;4.45;;;1.98;;
59052;SDS011;44843;44.728;10.396;2022-07-12T14:19:58;2.70;;;2.03;;
59052;SDS011;44843;44.728;10.396;2022-07-12T14:22:24;3.85;;;1.95;;
59052;SDS011;44843;44.728;10.396;2022-07-12T14:24:50;6.03;;;2.35;;
59052;SDS011;44843;44.728;10.396;2022-07-12T14:27:16;4.10;;;1.98;;
59052;SDS011;44843;44.728;10.396;2022-07-12T14:29:41;5.25;;;1.90;;
59052;SDS011;44843;44.728;10.396;2022-07-12T14:32:06;4.80;;;2.00;;
59052;SDS011;44843;44.728;10.396;2022-07-12T14:36:57;4.65;;;1.70;;
59052;SDS011;44843;44.728;10.396;2022-07-12T14:39:22;4.32;;;2.00;;
59052;SDS011;44843;44.728;10.396;2022-07-12T14:41:48;9.57;;;2.30;;
59052;SDS011;44843;44.728;10.396;2022-07-12T14:44:13;5.88;;;1.92;;
59052;SDS011;44843;44.728;10.396;2022-07-12T14:46:39;2.15;;;1.80;;
59052;SDS011;44843;44.728;10.396;2022-07-12T14:51:30;5.40;;;2.10;;
59052;SDS011;44843;44.728;10.396;2022-07-12T14:53:55;2.70;;;1.70;;
59052;SDS011;44843;44.728;10.396;2022-07-12T14:56:21;5.32;;;2.00;;
59052;SDS011;44843;44.728;10.396;2022-07-12T14:58:46;4.10;;;2.13;;
59052;SDS011;44843;44.728;10.396;2022-07-12T15:01:11;4.25;;;2.17;;
59052;SDS011;44843;44.728;10.396;2022-07-12T15:03:37;2.42;;;1.70;;
59052;SDS011;44843;44.728;10.396;2022-07-12T15:06:03;6.53;;;2.00;;
59052;SDS011;44843;44.728;10.396;2022-07-12T15:08:28;5.75;;;2.05;;
59052;SDS011;44843;44.728;10.396;2022-07-12T15:10:54;7.72;;;2.00;;
59052;SDS011;44843;44.728;10.396;2022-07-12T15:13:21;3.38;;;1.83;;